createdAt,value
2018-11-12T00:02:27.506Z,99710.48
2018-11-12T00:05:30.508Z,99710.78
2018-11-12T00:08:33.501Z,99710.16
2018-11-12T00:11:36.495Z,99709.56
2018-11-12T00:14:39.452Z,99706.59
2018-11-12T00:17:42.380Z,99705.84
2018-11-12T00:20:45.329Z,99704.92
2018-11-12T00:23:48.908Z,99713.34
2018-11-12T00:26:51.831Z,99714.62
2018-11-12T00:29:54.778Z,99720.63
2018-11-12T00:32:57.670Z,99721.76
2018-11-12T00:36:01.450Z,99723.66
2018-11-12T00:39:08.552Z,99732.95
2018-11-12T00:42:11.498Z,99747.71
2018-11-12T00:45:15.469Z,99753.93
2018-11-12T00:48:22.144Z,99765.87
2018-11-12T00:51:25.868Z,99784.73
2018-11-12T00:54:28.802Z,99799.49
2018-11-12T00:57:31.701Z,99793.80
2018-11-12T01:00:34.621Z,99790.98
2018-11-12T01:03:37.576Z,99771.70
2018-11-12T01:06:40.470Z,99759.40
2018-11-12T01:09:43.407Z,99759.65
2018-11-12T01:12:46.663Z,99747.25
2018-11-12T01:15:49.577Z,99761.97
2018-11-12T01:18:52.461Z,99766.11
2018-11-12T01:21:55.459Z,99769.47
2018-11-12T01:24:58.381Z,99768.77
2018-11-12T01:28:01.305Z,99773.20
2018-11-12T01:31:05.505Z,99772.50
2018-11-12T01:34:08.430Z,99757.62
2018-11-12T01:37:11.346Z,99762.59
2018-11-12T01:40:14.986Z,99766.11
2018-11-12T01:43:17.920Z,99761.19
2018-11-12T01:46:20.861Z,99751.28
2018-11-12T01:49:23.846Z,99748.50
2018-11-12T01:52:26.750Z,99731.25
2018-11-12T01:55:30.339Z,99731.17
2018-11-12T01:58:33.270Z,99714.59
2018-11-12T02:01:36.185Z,99713.97
2018-11-12T02:04:39.161Z,99720.30
2018-11-12T02:07:42.845Z,99717.66
2018-11-12T02:10:45.848Z,99712.97
2018-11-12T02:13:48.774Z,99712.06
2018-11-12T02:16:51.776Z,99724.33
2018-11-12T02:19:55.532Z,99724.08
2018-11-12T02:22:59.149Z,99725.28
2018-11-12T02:26:02.328Z,99721.14
2018-11-12T02:29:05.819Z,99708.45
2018-11-12T02:32:08.769Z,99706.09
2018-11-12T02:35:11.745Z,99713.34
2018-11-12T02:38:14.662Z,99708.41
2018-11-12T02:41:17.574Z,99700.87
2018-11-12T02:44:20.462Z,99703.35
2018-11-12T02:47:23.427Z,99709.83
2018-11-12T02:50:26.393Z,99709.95
2018-11-12T02:53:29.370Z,99718.11
2018-11-12T02:56:33.076Z,99714.67
2018-11-12T02:59:37.696Z,99698.59
2018-11-12T03:02:40.977Z,99687.07
2018-11-12T03:05:43.877Z,99694.16
2018-11-12T03:08:46.817Z,99688.39
2018-11-12T03:11:49.765Z,99693.37
2018-11-12T03:14:53.299Z,99692.78
2018-11-12T03:17:56.226Z,99700.00
2018-11-12T03:20:59.879Z,99692.91
2018-11-12T03:24:02.845Z,99691.34
2018-11-12T03:27:05.841Z,99701.25
2018-11-12T03:30:11.474Z,99696.77
2018-11-12T03:33:15.598Z,99696.64
2018-11-12T03:36:18.566Z,99701.95
2018-11-12T03:39:21.446Z,99701.49
2018-11-12T03:42:24.383Z,99703.14
2018-11-12T03:45:27.315Z,99703.03
2018-11-12T03:48:30.228Z,99702.58
2018-11-12T03:51:33.123Z,99702.48
2018-11-12T03:54:36.120Z,99701.83
2018-11-12T03:57:39.101Z,99692.42
2018-11-12T04:00:42.025Z,99695.39
2018-11-12T04:03:44.985Z,99690.84
2018-11-12T04:06:47.920Z,99693.86
2018-11-12T04:09:51.732Z,99709.36
2018-11-12T04:12:54.681Z,99711.89
2018-11-12T04:15:57.637Z,99702.27
2018-11-12T04:19:00.538Z,99687.14
2018-11-12T04:22:04.522Z,99694.84
2018-11-12T04:25:08.896Z,99702.61
2018-11-12T04:28:11.880Z,99705.84
2018-11-12T04:31:14.774Z,99691.20
2018-11-12T04:34:18.534Z,99693.15
2018-11-12T04:37:21.505Z,99699.69
2018-11-12T04:40:24.469Z,99691.95
2018-11-12T04:43:27.447Z,99702.90
2018-11-12T04:46:31.188Z,99697.71
2018-11-12T04:49:34.126Z,99690.34
2018-11-12T04:52:37.158Z,99688.47
2018-11-12T04:55:40.132Z,99677.57
2018-11-12T04:58:43.103Z,99680.59
2018-11-12T05:01:46.089Z,99681.51
2018-11-12T05:04:49.041Z,99680.22
2018-11-12T05:07:52.109Z,99689.72
2018-11-12T05:10:55.034Z,99683.50
2018-11-12T05:13:57.963Z,99674.98
2018-11-12T05:17:00.897Z,99665.61
2018-11-12T05:20:04.062Z,99677.86
2018-11-12T05:23:07.039Z,99671.93
2018-11-12T05:26:10.721Z,99673.55
2018-11-12T05:29:13.760Z,99684.03
2018-11-12T05:32:16.674Z,99694.41
2018-11-12T05:35:20.837Z,99702.61
2018-11-12T05:38:23.849Z,99693.08
2018-11-12T05:41:26.710Z,99689.05
2018-11-12T05:44:29.704Z,99679.20
2018-11-12T05:47:33.260Z,99678.44
2018-11-12T05:50:36.236Z,99688.37
2018-11-12T05:53:39.192Z,99696.22
2018-11-12T05:56:42.142Z,99704.22
2018-11-12T05:59:45.017Z,99696.43
2018-11-12T06:02:47.934Z,99689.27
2018-11-12T06:05:51.468Z,99690.18
2018-11-12T06:08:55.067Z,99699.55
2018-11-12T06:11:58.013Z,99688.69
2018-11-12T06:15:00.901Z,99700.25
2018-11-12T06:18:04.639Z,99700.12
2018-11-12T06:21:07.636Z,99690.59
2018-11-12T06:24:10.621Z,99680.97
2018-11-12T06:27:13.601Z,99681.92
2018-11-12T06:30:17.853Z,99682.83
2018-11-12T06:33:21.238Z,99680.42
2018-11-12T06:36:24.192Z,99681.93
2018-11-12T06:39:27.692Z,99683.09
2018-11-12T06:42:30.752Z,99687.27
2018-11-12T06:45:33.702Z,99688.52
2018-11-12T06:48:36.649Z,99699.67
2018-11-12T06:51:39.596Z,99705.14
2018-11-12T06:54:42.506Z,99696.43
2018-11-12T06:57:45.737Z,99703.69
2018-11-12T07:00:48.661Z,99702.10
2018-11-12T07:03:51.620Z,99699.73
2018-11-12T07:06:54.617Z,99705.33
2018-11-12T07:09:57.499Z,99702.77
2018-11-12T07:13:00.692Z,99690.36
2018-11-12T07:16:03.711Z,99689.49
2018-11-12T07:19:06.628Z,99686.88
2018-11-12T07:22:10.232Z,99693.98
2018-11-12T07:25:13.928Z,99692.77
2018-11-12T07:28:16.800Z,99689.68
2018-11-12T07:31:19.810Z,99686.40
2018-11-12T07:34:22.689Z,99689.17
2018-11-12T07:37:25.649Z,99690.86
2018-11-12T07:40:28.601Z,99680.61
2018-11-12T07:43:31.538Z,99675.64
2018-11-12T07:46:34.497Z,99658.97
2018-11-12T07:49:37.452Z,99657.06
2018-11-12T07:52:40.665Z,99658.67
2018-11-12T07:55:43.631Z,99658.67
2018-11-12T07:58:46.537Z,99665.13
2018-11-12T08:01:49.522Z,99659.32
2018-11-12T08:04:52.443Z,99651.72
2018-11-12T08:07:55.432Z,99652.73
2018-11-12T08:10:58.395Z,99661.24
2018-11-12T08:14:01.301Z,99653.33
2018-11-12T08:17:04.250Z,99648.02
2018-11-12T08:20:10.360Z,99640.47
2018-11-12T08:23:13.234Z,99636.58
2018-11-12T08:26:16.178Z,99640.52
2018-11-12T08:29:19.079Z,99637.45
2018-11-12T08:32:22.051Z,99640.70
2018-11-12T08:35:25.497Z,99645.42
2018-11-12T08:38:28.777Z,99641.95
2018-11-12T08:41:31.808Z,99639.83
2018-11-12T08:44:34.706Z,99628.21
2018-11-12T08:47:38.286Z,99632.96
2018-11-12T08:50:41.223Z,99625.23
2018-11-12T08:53:44.823Z,99618.82
2018-11-12T08:56:48.413Z,99613.46
2018-11-12T08:59:51.966Z,99608.25
2018-11-12T09:02:55.673Z,99600.42
2018-11-12T09:05:58.633Z,99595.34
2018-11-12T09:09:02.638Z,99605.31
2018-11-12T09:12:05.659Z,99604.99
2018-11-12T09:15:09.477Z,99609.80
2018-11-12T09:18:12.375Z,99623.30
2018-11-12T09:21:15.329Z,99627.73
2018-11-12T09:24:18.315Z,99620.77
2018-11-12T09:27:21.221Z,99625.91
2018-11-12T09:30:28.057Z,99618.86
2018-11-12T09:33:31.029Z,99616.44
2018-11-12T09:36:33.999Z,99600.86
2018-11-12T09:39:36.997Z,99610.38
2018-11-12T09:42:40.253Z,99606.84
2018-11-12T09:45:46.053Z,99611.20
2018-11-12T09:48:52.906Z,99599.42
2018-11-12T09:51:57.035Z,99594.17
2018-11-12T09:55:02.024Z,99584.06
2018-11-12T09:58:07.379Z,99580.76
2018-11-12T10:01:12.522Z,99570.86
2018-11-12T10:04:19.113Z,99566.20
2018-11-12T10:07:24.468Z,99561.78
2018-11-12T10:10:38.745Z,99557.11
2018-11-12T10:13:43.050Z,99550.34
2018-11-12T10:16:48.614Z,99558.05
2018-11-12T10:19:51.403Z,99558.45
2018-11-12T10:22:55.983Z,99564.97
2018-11-12T10:26:00.916Z,99561.32
2018-11-12T10:29:06.229Z,99556.98
2018-11-12T10:32:10.256Z,99562.88
2018-11-12T10:35:14.289Z,99566.42
2018-11-12T10:38:18.326Z,99573.33
2018-11-12T10:41:22.389Z,99582.48
2018-11-12T10:44:26.601Z,99571.27
2018-11-12T10:47:33.044Z,99578.84
2018-11-12T10:50:37.113Z,99578.00
2018-11-12T10:53:50.042Z,99572.28
2018-11-12T10:56:47.513Z,99583.01
2018-11-12T10:59:57.184Z,99574.77
2018-11-12T11:03:08.460Z,99576.47
2018-11-12T11:06:12.816Z,99568.20
2018-11-12T11:09:18.820Z,99579.73
2018-11-12T11:12:22.820Z,99583.13
2018-11-12T11:15:27.133Z,99589.68
2018-11-12T11:18:32.747Z,99576.36
2018-11-12T11:21:38.240Z,99570.83
2018-11-12T11:24:46.324Z,99599.50
2018-11-12T11:27:50.820Z,99593.39
2018-11-12T11:30:56.204Z,99598.73
2018-11-12T11:34:00.565Z,99616.33
2018-11-12T11:37:05.241Z,99623.73
2018-11-12T11:40:12.899Z,99620.76
2018-11-12T11:43:17.130Z,99612.52
2018-11-12T11:46:21.100Z,99603.77
2018-11-12T11:49:24.232Z,99598.78
2018-11-12T11:52:27.785Z,99595.73
2018-11-12T11:55:30.786Z,99593.69
2018-11-12T11:58:33.642Z,99592.47
2018-11-12T12:01:42.802Z,99594.00
2018-11-12T12:04:46.432Z,99588.83
2018-11-12T12:07:50.720Z,99571.95
2018-11-12T12:10:53.700Z,99577.95
2018-11-12T12:13:56.661Z,99577.48
2018-11-12T12:16:59.572Z,99587.63
2018-11-12T12:20:03.340Z,99594.66
2018-11-12T12:23:06.373Z,99590.27
2018-11-12T12:26:10.818Z,99594.36
2018-11-12T12:29:13.797Z,99595.90
2018-11-12T12:32:19.301Z,99597.23
2018-11-12T12:35:22.484Z,99616.59
2018-11-12T12:38:25.557Z,99606.00
2018-11-12T12:41:28.758Z,99603.03
2018-11-12T12:44:33.805Z,99617.77
2018-11-12T12:47:37.484Z,99607.66
2018-11-12T12:50:41.143Z,99587.52
2018-11-12T12:53:44.220Z,99595.36
2018-11-12T12:56:47.141Z,99597.02
2018-11-12T12:59:50.127Z,99602.75
2018-11-12T13:02:53.069Z,99596.55
2018-11-12T13:05:57.502Z,99593.26
2018-11-12T13:09:02.368Z,99595.88
2018-11-12T13:12:05.430Z,99602.06
2018-11-12T13:15:10.382Z,99616.47
2018-11-12T13:18:13.333Z,99658.59
2018-11-12T13:21:16.327Z,99672.53
2018-11-12T13:24:19.143Z,99642.79
2018-11-12T13:27:22.062Z,99671.59
2018-11-12T13:30:24.992Z,99682.36
2018-11-12T13:33:27.908Z,99700.34
2018-11-12T13:36:30.869Z,99707.21
2018-11-12T13:39:33.848Z,99719.81
2018-11-12T13:42:36.737Z,99724.05
2018-11-12T13:45:39.710Z,99742.60
2018-11-12T13:48:43.017Z,99729.23
2018-11-12T13:51:45.930Z,99739.23
2018-11-12T13:54:48.853Z,99731.41
2018-11-12T13:57:52.005Z,99746.56
2018-11-12T14:00:54.983Z,99740.48
2018-11-12T14:03:58.063Z,99739.25
2018-11-12T14:07:00.973Z,99724.00
2018-11-12T14:10:04.370Z,99724.15
2018-11-12T14:13:07.257Z,99745.81
2018-11-12T14:16:10.194Z,99749.75
2018-11-12T14:19:13.084Z,99733.92
2018-11-12T14:22:15.957Z,99747.80
2018-11-12T14:25:19.776Z,99756.19
2018-11-12T14:28:22.776Z,99759.25
2018-11-12T14:31:25.841Z,99759.93
2018-11-12T14:34:28.752Z,99765.86
2018-11-12T14:37:31.682Z,99767.36
2018-11-12T14:40:34.602Z,99772.63
2018-11-12T14:43:37.521Z,99782.33
2018-11-12T14:46:40.447Z,99770.66
2018-11-12T14:49:43.375Z,99760.69
2018-11-12T14:52:46.847Z,99749.72
2018-11-12T14:55:49.812Z,99751.59
2018-11-12T14:58:52.773Z,99771.69
2018-11-12T15:01:55.759Z,99779.77
2018-11-12T15:04:58.638Z,99779.05
2018-11-12T15:08:01.506Z,99782.58
2018-11-12T15:11:04.783Z,99792.02
2018-11-12T15:14:08.596Z,99791.23
2018-11-12T15:17:11.506Z,99799.16
2018-11-12T15:20:15.622Z,99797.27
2018-11-12T15:23:18.538Z,99809.04
2018-11-12T15:26:21.458Z,99815.42
2018-11-12T15:29:24.413Z,99822.07
2018-11-12T15:32:27.329Z,99823.54
2018-11-12T15:35:30.305Z,99831.11
2018-11-12T15:38:33.244Z,99841.80
2018-11-12T15:41:36.196Z,99839.55
2018-11-12T15:44:39.098Z,99845.98
2018-11-12T15:47:42.873Z,99846.63
2018-11-12T15:50:45.844Z,99852.69
2018-11-12T15:53:48.765Z,99854.88
2018-11-12T15:56:51.682Z,99867.03
2018-11-12T15:59:54.676Z,99869.94
2018-11-12T16:02:57.587Z,99858.79
2018-11-12T16:06:00.615Z,99868.09
2018-11-12T16:09:06.796Z,99868.66
2018-11-12T16:12:09.861Z,99883.82
2018-11-12T16:15:14.536Z,99897.16
2018-11-12T16:18:17.449Z,99904.86
2018-11-12T16:21:20.420Z,99916.20
2018-11-12T16:24:23.357Z,99917.30
2018-11-12T16:27:26.354Z,99922.16
2018-11-12T16:30:29.991Z,99925.27
2018-11-12T16:33:32.953Z,99942.84
2018-11-12T16:36:35.899Z,99945.88
2018-11-12T16:39:38.872Z,99949.70
2018-11-12T16:42:42.702Z,99938.16
2018-11-12T16:45:45.698Z,99952.60
2018-11-12T16:48:48.594Z,99963.13
2018-11-12T16:51:51.521Z,99977.00
2018-11-12T16:54:54.469Z,99982.95
2018-11-12T16:57:57.508Z,99993.23
2018-11-12T17:01:01.120Z,100002.45
2018-11-12T17:04:04.470Z,100006.39
2018-11-12T17:07:07.460Z,100019.56
2018-11-12T17:10:12.674Z,100020.02
2018-11-12T17:13:15.640Z,100011.55
2018-11-12T17:16:18.590Z,100016.95
2018-11-12T17:19:22.132Z,100024.96
2018-11-12T17:22:26.036Z,100041.00
2018-11-12T17:25:29.004Z,100053.95
2018-11-12T17:28:31.922Z,100060.92
2018-11-12T17:31:34.880Z,100038.38
2018-11-12T17:34:37.865Z,100044.97
2018-11-12T17:37:40.889Z,100053.16
2018-11-12T17:40:43.816Z,100065.77
2018-11-12T17:43:47.104Z,100081.41
2018-11-12T17:46:50.194Z,100091.87
2018-11-12T17:49:53.184Z,100090.30
2018-11-12T17:53:02.907Z,100086.73
2018-11-12T17:56:05.938Z,100084.73
2018-11-12T17:59:08.935Z,100083.05
2018-11-12T18:02:11.879Z,100083.39
2018-11-12T18:05:14.896Z,100080.75
2018-11-12T18:08:17.895Z,100092.45
2018-11-12T18:11:20.754Z,100101.53
2018-11-12T18:14:23.698Z,100104.36
2018-11-12T18:17:26.643Z,100122.69
2018-11-12T18:20:29.623Z,100122.66
2018-11-12T18:23:32.524Z,100111.96
2018-11-12T18:26:35.474Z,100138.48
2018-11-12T18:29:38.409Z,100158.79
2018-11-12T18:32:41.734Z,100153.02
2018-11-12T18:35:44.701Z,100147.22
2018-11-12T18:38:47.645Z,100153.82
2018-11-12T18:41:50.623Z,100128.12
2018-11-12T18:44:53.589Z,100147.75
2018-11-12T18:47:57.329Z,100148.66
2018-11-12T18:51:00.301Z,100148.05
2018-11-12T18:54:03.322Z,100150.97
2018-11-12T18:57:06.249Z,100157.01
2018-11-12T19:00:11.725Z,100167.38
2018-11-12T19:03:14.676Z,100196.98
2018-11-12T19:06:17.625Z,100205.11
2018-11-12T19:09:20.676Z,100208.72
2018-11-12T19:12:23.566Z,100200.63
2018-11-12T19:15:28.184Z,100211.26
2018-11-12T19:18:31.125Z,100204.60
2018-11-12T19:21:34.034Z,100199.78
2018-11-12T19:24:36.973Z,100207.23
2018-11-12T19:27:40.013Z,100203.33
2018-11-12T19:30:42.963Z,100199.72
2018-11-12T19:33:45.932Z,100175.87
2018-11-12T19:36:48.941Z,100188.06
2018-11-12T19:39:51.887Z,100214.11
2018-11-12T19:42:55.416Z,100229.23
2018-11-12T19:45:58.311Z,100228.26
2018-11-12T19:49:01.246Z,100221.00
2018-11-12T19:52:04.196Z,100210.19
2018-11-12T19:55:07.225Z,100203.20
2018-11-12T19:58:10.193Z,100208.45
2018-11-12T20:01:13.112Z,100212.42
2018-11-12T20:04:16.017Z,100201.54
2018-11-12T20:07:19.084Z,100202.44
2018-11-12T20:10:22.712Z,100220.89
2018-11-12T20:13:25.680Z,100234.28
2018-11-12T20:16:28.626Z,100232.57
2018-11-12T20:19:31.570Z,100229.91
2018-11-12T20:22:34.544Z,100226.20
2018-11-12T20:25:37.493Z,100228.58
2018-11-12T20:28:40.413Z,100236.97
2018-11-12T20:31:43.370Z,100252.45
2018-11-12T20:34:46.312Z,100261.16
2018-11-12T20:37:49.271Z,100257.35
2018-11-12T20:40:52.207Z,100257.39
2018-11-12T20:43:55.156Z,100254.41
2018-11-12T20:46:58.101Z,100256.28
2018-11-12T20:50:01.088Z,100249.95
2018-11-12T20:53:04.851Z,100254.52
2018-11-12T20:56:08.173Z,100250.73
2018-11-12T20:59:11.149Z,100252.73
2018-11-12T21:02:14.113Z,100254.84
2018-11-12T21:05:17.506Z,100237.33
2018-11-12T21:08:20.439Z,100250.42
2018-11-12T21:11:23.413Z,100246.01
2018-11-12T21:14:26.307Z,100259.09
2018-11-12T21:17:29.186Z,100271.75
2018-11-12T21:20:32.182Z,100277.06
2018-11-12T21:23:35.116Z,100263.75
2018-11-12T21:26:38.013Z,100265.73
2018-11-12T21:29:40.938Z,100262.89
2018-11-12T21:32:44.146Z,100253.02
2018-11-12T21:35:47.112Z,100252.12
2018-11-12T21:38:50.064Z,100260.23
2018-11-12T21:41:52.992Z,100254.20
2018-11-12T21:44:55.993Z,100261.02
2018-11-12T21:47:58.917Z,100269.34
2018-11-12T21:51:01.858Z,100260.63
2018-11-12T21:54:05.054Z,100268.63
2018-11-12T21:57:08.801Z,100270.45
2018-11-12T22:00:19.680Z,100265.91
2018-11-12T22:03:22.665Z,100262.62
2018-11-12T22:06:25.625Z,100261.98
2018-11-12T22:09:28.574Z,100271.70
2018-11-12T22:12:31.586Z,100281.63
2018-11-12T22:15:34.568Z,100282.80
2018-11-12T22:18:37.645Z,100282.06
2018-11-12T22:21:40.592Z,100288.19
2018-11-12T22:24:43.513Z,100291.99
2018-11-12T22:27:47.065Z,100292.55
2018-11-12T22:30:50.060Z,100295.45
2018-11-12T22:33:52.941Z,100295.28
2018-11-12T22:36:55.819Z,100290.42
2018-11-12T22:39:58.793Z,100292.27
2018-11-12T22:43:01.751Z,100300.53
2018-11-12T22:46:04.801Z,100306.53
2018-11-12T22:49:07.742Z,100300.69
2018-11-12T22:52:10.827Z,100310.80
2018-11-12T22:55:15.089Z,100316.50
2018-11-12T22:58:18.099Z,100314.58
2018-11-12T23:01:21.830Z,100313.42
2018-11-12T23:04:24.925Z,100313.33
2018-11-12T23:07:27.829Z,100319.97
2018-11-12T23:10:30.865Z,100306.17
2018-11-12T23:13:34.445Z,100302.71
2018-11-12T23:16:37.404Z,100301.67
2018-11-12T23:19:40.380Z,100307.30
2018-11-12T23:22:44.095Z,100316.59
2018-11-12T23:25:46.990Z,100315.86
2018-11-12T23:28:49.971Z,100314.34
2018-11-12T23:31:52.866Z,100318.16
2018-11-12T23:34:55.809Z,100325.86
2018-11-12T23:37:58.766Z,100321.45
2018-11-12T23:41:01.698Z,100305.82
2018-11-12T23:44:04.952Z,100307.57
2018-11-12T23:47:07.901Z,100306.92
2018-11-12T23:50:13.958Z,100305.69
2018-11-12T23:53:16.941Z,100302.65
2018-11-12T23:56:19.877Z,100298.08
2018-11-12T23:59:22.841Z,100281.77
